Terminal Aerodrome Forecast
Issued by NWS Newport/Morehead City, NC

Home | Current Version | Previous Version | Text Only | Print | Product List | Glossary On
Versions: 1 2 3 4 5 6 7 8 9 10 11 12 13 14 15 16 17
769
FTUS42 KMHX 271732
TAFEWN
TAF
KEWN 271732Z 2718/2818 19010G15KT P6SM SCT040
     FM280200 19005KT P6SM BKN130
     FM280600 VRB03KT P6SM OVC080
     FM280900 17005KT 2SM +SHRA OVC050=

USA.gov is the U.S. government's official web portal to all federal, state and local government web resources and services.